sensor_id;sensor_type;location;lat;lon;timestamp;P1;durP1;ratioP1;P2;durP2;ratioP2
27558;SDS011;15002;52.028;5.670;2022-07-11T00:01:43;8.18;;;2.97;;
27558;SDS011;15002;52.028;5.670;2022-07-11T00:04:09;6.50;;;2.88;;
27558;SDS011;15002;52.028;5.670;2022-07-11T00:06:34;5.57;;;3.05;;
27558;SDS011;15002;52.028;5.670;2022-07-11T00:09:00;7.60;;;2.78;;
27558;SDS011;15002;52.028;5.670;2022-07-11T00:11:26;11.18;;;3.00;;
27558;SDS011;15002;52.028;5.670;2022-07-11T00:13:51;9.77;;;3.30;;
27558;SDS011;15002;52.028;5.670;2022-07-11T00:16:17;9.32;;;2.85;;
27558;SDS011;15002;52.028;5.670;2022-07-11T00:18:43;6.13;;;3.20;;
27558;SDS011;15002;52.028;5.670;2022-07-11T00:21:09;6.57;;;2.78;;
27558;SDS011;15002;52.028;5.670;2022-07-11T00:23:36;9.38;;;2.78;;
27558;SDS011;15002;52.028;5.670;2022-07-11T00:26:01;6.35;;;2.90;;
27558;SDS011;15002;52.028;5.670;2022-07-11T00:28:27;6.65;;;3.20;;
27558;SDS011;15002;52.028;5.670;2022-07-11T00:30:53;6.75;;;3.10;;
27558;SDS011;15002;52.028;5.670;2022-07-11T00:33:19;5.68;;;3.25;;
27558;SDS011;15002;52.028;5.670;2022-07-11T00:35:45;6.57;;;3.13;;
27558;SDS011;15002;52.028;5.670;2022-07-11T00:38:10;11.50;;;3.13;;
27558;SDS011;15002;52.028;5.670;2022-07-11T00:40:36;7.35;;;3.15;;
27558;SDS011;15002;52.028;5.670;2022-07-11T00:43:05;8.98;;;3.40;;
27558;SDS011;15002;52.028;5.670;2022-07-11T00:45:31;5.70;;;3.15;;
27558;SDS011;15002;52.028;5.670;2022-07-11T00:47:57;8.65;;;3.28;;
27558;SDS011;15002;52.028;5.670;2022-07-11T00:50:24;8.60;;;3.50;;
27558;SDS011;15002;52.028;5.670;2022-07-11T00:52:50;7.20;;;3.47;;
27558;SDS011;15002;52.028;5.670;2022-07-11T00:55:16;6.57;;;3.35;;
27558;SDS011;15002;52.028;5.670;2022-07-11T00:57:42;7.53;;;3.47;;
27558;SDS011;15002;52.028;5.670;2022-07-11T01:00:09;6.03;;;3.10;;
27558;SDS011;15002;52.028;5.670;2022-07-11T01:02:36;8.10;;;3.38;;
27558;SDS011;15002;52.028;5.670;2022-07-11T01:05:01;8.57;;;3.42;;
27558;SDS011;15002;52.028;5.670;2022-07-11T01:07:27;6.40;;;3.10;;
27558;SDS011;15002;52.028;5.670;2022-07-11T01:09:55;6.30;;;2.97;;
27558;SDS011;15002;52.028;5.670;2022-07-11T01:12:21;5.25;;;2.90;;
27558;SDS011;15002;52.028;5.670;2022-07-11T01:14:51;8.18;;;3.13;;
27558;SDS011;15002;52.028;5.670;2022-07-11T01:17:21;5.82;;;3.22;;
27558;SDS011;15002;52.028;5.670;2022-07-11T01:19:47;4.75;;;2.75;;
27558;SDS011;15002;52.028;5.670;2022-07-11T01:22:16;9.82;;;3.78;;
27558;SDS011;15002;52.028;5.670;2022-07-11T01:24:46;5.15;;;2.70;;
27558;SDS011;15002;52.028;5.670;2022-07-11T01:27:11;6.05;;;2.70;;
27558;SDS011;15002;52.028;5.670;2022-07-11T01:29:38;7.38;;;2.67;;
27558;SDS011;15002;52.028;5.670;2022-07-11T01:32:05;11.48;;;3.13;;
27558;SDS011;15002;52.028;5.670;2022-07-11T01:34:32;6.40;;;3.10;;
27558;SDS011;15002;52.028;5.670;2022-07-11T01:36:58;5.90;;;3.25;;
27558;SDS011;15002;52.028;5.670;2022-07-11T01:39:23;11.57;;;3.28;;
27558;SDS011;15002;52.028;5.670;2022-07-11T01:41:50;5.40;;;2.35;;
27558;SDS011;15002;52.028;5.670;2022-07-11T01:44:15;6.57;;;2.70;;
27558;SDS011;15002;52.028;5.670;2022-07-11T01:46:41;5.22;;;2.88;;
27558;SDS011;15002;52.028;5.670;2022-07-11T01:49:06;6.13;;;2.63;;
27558;SDS011;15002;52.028;5.670;2022-07-11T01:51:34;7.03;;;2.47;;
27558;SDS011;15002;52.028;5.670;2022-07-11T01:54:00;7.70;;;2.80;;
27558;SDS011;15002;52.028;5.670;2022-07-11T01:56:25;11.13;;;3.00;;
27558;SDS011;15002;52.028;5.670;2022-07-11T01:58:52;5.45;;;2.78;;
27558;SDS011;15002;52.028;5.670;2022-07-11T02:01:18;8.45;;;3.30;;
27558;SDS011;15002;52.028;5.670;2022-07-11T02:03:43;7.55;;;2.80;;
27558;SDS011;15002;52.028;5.670;2022-07-11T02:06:09;7.18;;;2.88;;
27558;SDS011;15002;52.028;5.670;2022-07-11T02:08:34;7.10;;;3.08;;
27558;SDS011;15002;52.028;5.670;2022-07-11T02:11:01;9.45;;;3.50;;
27558;SDS011;15002;52.028;5.670;2022-07-11T02:13:26;4.35;;;2.63;;
27558;SDS011;15002;52.028;5.670;2022-07-11T02:15:52;8.32;;;3.00;;
27558;SDS011;15002;52.028;5.670;2022-07-11T02:18:18;4.55;;;2.63;;
27558;SDS011;15002;52.028;5.670;2022-07-11T02:20:44;7.75;;;3.00;;
27558;SDS011;15002;52.028;5.670;2022-07-11T02:23:19;6.13;;;2.47;;
27558;SDS011;15002;52.028;5.670;2022-07-11T02:25:46;6.50;;;2.65;;
27558;SDS011;15002;52.028;5.670;2022-07-11T02:28:12;8.45;;;2.83;;
27558;SDS011;15002;52.028;5.670;2022-07-11T02:30:39;6.25;;;2.67;;
27558;SDS011;15002;52.028;5.670;2022-07-11T02:33:06;4.50;;;2.65;;
27558;SDS011;15002;52.028;5.670;2022-07-11T02:35:33;6.65;;;2.67;;
27558;SDS011;15002;52.028;5.670;2022-07-11T02:37:59;6.28;;;2.30;;
27558;SDS011;15002;52.028;5.670;2022-07-11T02:40:26;5.43;;;2.28;;
27558;SDS011;15002;52.028;5.670;2022-07-11T02:42:52;5.32;;;2.10;;
27558;SDS011;15002;52.028;5.670;2022-07-11T02:45:19;5.07;;;2.05;;
27558;SDS011;15002;52.028;5.670;2022-07-11T02:47:44;3.42;;;1.58;;
27558;SDS011;15002;52.028;5.670;2022-07-11T02:50:11;5.90;;;1.70;;
27558;SDS011;15002;52.028;5.670;2022-07-11T02:52:37;5.88;;;2.10;;
27558;SDS011;15002;52.028;5.670;2022-07-11T02:55:04;4.35;;;2.00;;
27558;SDS011;15002;52.028;5.670;2022-07-11T02:57:30;3.20;;;1.48;;
27558;SDS011;15002;52.028;5.670;2022-07-11T02:59:56;3.88;;;1.85;;
27558;SDS011;15002;52.028;5.670;2022-07-11T03:02:21;4.57;;;1.90;;
27558;SDS011;15002;52.028;5.670;2022-07-11T03:04:47;6.00;;;1.70;;
27558;SDS011;15002;52.028;5.670;2022-07-11T03:07:13;6.00;;;2.08;;
27558;SDS011;15002;52.028;5.670;2022-07-11T03:09:39;6.57;;;2.35;;
27558;SDS011;15002;52.028;5.670;2022-07-11T03:12:05;7.18;;;2.30;;
27558;SDS011;15002;52.028;5.670;2022-07-11T03:14:30;4.43;;;2.10;;
27558;SDS011;15002;52.028;5.670;2022-07-11T03:16:56;3.83;;;1.98;;
27558;SDS011;15002;52.028;5.670;2022-07-11T03:19:22;6.00;;;2.30;;
27558;SDS011;15002;52.028;5.670;2022-07-11T03:21:47;7.80;;;2.58;;
27558;SDS011;15002;52.028;5.670;2022-07-11T03:24:13;5.20;;;2.58;;
27558;SDS011;15002;52.028;5.670;2022-07-11T03:26:38;9.38;;;2.80;;
27558;SDS011;15002;52.028;5.670;2022-07-11T03:29:04;12.23;;;3.20;;
27558;SDS011;15002;52.028;5.670;2022-07-11T03:31:32;10.13;;;2.75;;
27558;SDS011;15002;52.028;5.670;2022-07-11T03:33:58;7.70;;;2.55;;
27558;SDS011;15002;52.028;5.670;2022-07-11T03:36:24;11.23;;;2.60;;
27558;SDS011;15002;52.028;5.670;2022-07-11T03:38:50;6.70;;;2.75;;
27558;SDS011;15002;52.028;5.670;2022-07-11T03:41:16;7.00;;;2.53;;
27558;SDS011;15002;52.028;5.670;2022-07-11T03:43:41;5.22;;;2.90;;
27558;SDS011;15002;52.028;5.670;2022-07-11T03:46:07;10.32;;;3.53;;
27558;SDS011;15002;52.028;5.670;2022-07-11T03:48:33;4.05;;;2.50;;
27558;SDS011;15002;52.028;5.670;2022-07-11T03:50:58;5.13;;;2.45;;
27558;SDS011;15002;52.028;5.670;2022-07-11T03:53:24;3.72;;;2.17;;
27558;SDS011;15002;52.028;5.670;2022-07-11T03:55:49;4.90;;;2.75;;
27558;SDS011;15002;52.028;5.670;2022-07-11T03:58:15;3.53;;;2.25;;
27558;SDS011;15002;52.028;5.670;2022-07-11T04:00:41;4.07;;;2.50;;
27558;SDS011;15002;52.028;5.670;2022-07-11T04:03:06;6.53;;;2.55;;
27558;SDS011;15002;52.028;5.670;2022-07-11T04:05:32;5.88;;;2.50;;
27558;SDS011;15002;52.028;5.670;2022-07-11T04:07:57;3.72;;;2.35;;
27558;SDS011;15002;52.028;5.670;2022-07-11T04:10:23;4.45;;;2.58;;
27558;SDS011;15002;52.028;5.670;2022-07-11T04:12:49;3.72;;;2.50;;
27558;SDS011;15002;52.028;5.670;2022-07-11T04:15:15;4.50;;;2.95;;
27558;SDS011;15002;52.028;5.670;2022-07-11T04:17:41;5.72;;;2.95;;
27558;SDS011;15002;52.028;5.670;2022-07-11T04:20:06;3.92;;;2.70;;
27558;SDS011;15002;52.028;5.670;2022-07-11T04:22:32;5.15;;;2.45;;
27558;SDS011;15002;52.028;5.670;2022-07-11T04:24:58;3.70;;;2.35;;
27558;SDS011;15002;52.028;5.670;2022-07-11T04:27:24;3.85;;;2.60;;
27558;SDS011;15002;52.028;5.670;2022-07-11T04:29:50;3.55;;;2.78;;
27558;SDS011;15002;52.028;5.670;2022-07-11T04:32:16;3.75;;;3.03;;
27558;SDS011;15002;52.028;5.670;2022-07-11T04:34:42;4.18;;;2.70;;
27558;SDS011;15002;52.028;5.670;2022-07-11T04:37:07;6.70;;;2.75;;
27558;SDS011;15002;52.028;5.670;2022-07-11T04:39:33;6.50;;;3.15;;
27558;SDS011;15002;52.028;5.670;2022-07-11T04:41:59;4.68;;;3.13;;
27558;SDS011;15002;52.028;5.670;2022-07-11T04:44:26;6.40;;;2.53;;
27558;SDS011;15002;52.028;5.670;2022-07-11T04:46:54;6.95;;;2.97;;
27558;SDS011;15002;52.028;5.670;2022-07-11T04:49:20;6.68;;;3.28;;
27558;SDS011;15002;52.028;5.670;2022-07-11T04:51:46;4.53;;;2.83;;
27558;SDS011;15002;52.028;5.670;2022-07-11T04:54:12;4.63;;;3.40;;
27558;SDS011;15002;52.028;5.670;2022-07-11T04:56:37;5.60;;;3.50;;
27558;SDS011;15002;52.028;5.670;2022-07-11T04:59:03;6.82;;;3.40;;
27558;SDS011;15002;52.028;5.670;2022-07-11T05:01:29;5.05;;;3.22;;
27558;SDS011;15002;52.028;5.670;2022-07-11T05:03:55;5.38;;;2.90;;
27558;SDS011;15002;52.028;5.670;2022-07-11T05:06:22;5.03;;;3.10;;
27558;SDS011;15002;52.028;5.670;2022-07-11T05:08:48;3.33;;;3.03;;
27558;SDS011;15002;52.028;5.670;2022-07-11T05:11:13;4.38;;;2.72;;
27558;SDS011;15002;52.028;5.670;2022-07-11T05:13:39;5.15;;;3.20;;
27558;SDS011;15002;52.028;5.670;2022-07-11T05:16:05;4.43;;;2.97;;
27558;SDS011;15002;52.028;5.670;2022-07-11T05:18:32;6.35;;;3.10;;
27558;SDS011;15002;52.028;5.670;2022-07-11T05:20:57;5.00;;;3.17;;
27558;SDS011;15002;52.028;5.670;2022-07-11T05:23:23;12.05;;;3.53;;
27558;SDS011;15002;52.028;5.670;2022-07-11T05:25:48;4.80;;;3.60;;
27558;SDS011;15002;52.028;5.670;2022-07-11T05:28:14;6.80;;;3.75;;
27558;SDS011;15002;52.028;5.670;2022-07-11T05:30:40;4.50;;;3.58;;
27558;SDS011;15002;52.028;5.670;2022-07-11T05:33:06;5.88;;;3.72;;
27558;SDS011;15002;52.028;5.670;2022-07-11T05:35:31;7.55;;;3.78;;
27558;SDS011;15002;52.028;5.670;2022-07-11T05:37:57;6.95;;;3.58;;
27558;SDS011;15002;52.028;5.670;2022-07-11T05:40:23;5.78;;;3.80;;
27558;SDS011;15002;52.028;5.670;2022-07-11T05:42:48;8.10;;;4.40;;
27558;SDS011;15002;52.028;5.670;2022-07-11T05:45:14;9.02;;;4.90;;
27558;SDS011;15002;52.028;5.670;2022-07-11T05:47:40;4.53;;;3.53;;
27558;SDS011;15002;52.028;5.670;2022-07-11T05:50:05;5.30;;;4.22;;
27558;SDS011;15002;52.028;5.670;2022-07-11T05:52:31;5.35;;;4.13;;
27558;SDS011;15002;52.028;5.670;2022-07-11T05:54:57;8.00;;;4.32;;
27558;SDS011;15002;52.028;5.670;2022-07-11T05:57:23;9.73;;;4.22;;
27558;SDS011;15002;52.028;5.670;2022-07-11T05:59:49;6.82;;;4.55;;
27558;SDS011;15002;52.028;5.670;2022-07-11T06:02:15;5.32;;;4.45;;
27558;SDS011;15002;52.028;5.670;2022-07-11T06:04:41;6.13;;;4.18;;
27558;SDS011;15002;52.028;5.670;2022-07-11T06:07:10;5.25;;;3.45;;
27558;SDS011;15002;52.028;5.670;2022-07-11T06:09:36;5.00;;;3.35;;
27558;SDS011;15002;52.028;5.670;2022-07-11T06:12:02;7.22;;;4.70;;
27558;SDS011;15002;52.028;5.670;2022-07-11T06:14:28;5.53;;;3.70;;
27558;SDS011;15002;52.028;5.670;2022-07-11T06:16:54;7.20;;;3.95;;
27558;SDS011;15002;52.028;5.670;2022-07-11T06:19:20;7.55;;;3.78;;
27558;SDS011;15002;52.028;5.670;2022-07-11T06:21:46;6.05;;;3.70;;
27558;SDS011;15002;52.028;5.670;2022-07-11T06:24:12;4.60;;;3.28;;
27558;SDS011;15002;52.028;5.670;2022-07-11T06:26:37;4.45;;;3.70;;
27558;SDS011;15002;52.028;5.670;2022-07-11T06:29:03;6.18;;;3.47;;
27558;SDS011;15002;52.028;5.670;2022-07-11T06:31:29;5.47;;;3.60;;
27558;SDS011;15002;52.028;5.670;2022-07-11T06:33:55;5.28;;;3.40;;
27558;SDS011;15002;52.028;5.670;2022-07-11T06:36:22;7.22;;;3.75;;
27558;SDS011;15002;52.028;5.670;2022-07-11T06:38:51;6.63;;;3.35;;
27558;SDS011;15002;52.028;5.670;2022-07-11T06:41:18;3.88;;;3.42;;
27558;SDS011;15002;52.028;5.670;2022-07-11T06:43:44;5.25;;;3.33;;
27558;SDS011;15002;52.028;5.670;2022-07-11T06:46:12;2.85;;;2.55;;
27558;SDS011;15002;52.028;5.670;2022-07-11T06:48:41;3.22;;;2.40;;
27558;SDS011;15002;52.028;5.670;2022-07-11T06:51:07;4.10;;;2.90;;
27558;SDS011;15002;52.028;5.670;2022-07-11T06:53:34;4.47;;;2.20;;
27558;SDS011;15002;52.028;5.670;2022-07-11T06:55:59;3.03;;;1.63;;
27558;SDS011;15002;52.028;5.670;2022-07-11T06:58:25;1.83;;;1.67;;
27558;SDS011;15002;52.028;5.670;2022-07-11T07:01:00;2.38;;;1.58;;
27558;SDS011;15002;52.028;5.670;2022-07-11T07:03:31;3.75;;;1.70;;
27558;SDS011;15002;52.028;5.670;2022-07-11T07:05:58;1.77;;;1.48;;
27558;SDS011;15002;52.028;5.670;2022-07-11T07:08:25;2.03;;;1.50;;
27558;SDS011;15002;52.028;5.670;2022-07-11T07:10:52;1.58;;;1.42;;
27558;SDS011;15002;52.028;5.670;2022-07-11T07:13:19;3.22;;;1.30;;
27558;SDS011;15002;52.028;5.670;2022-07-11T07:15:48;1.83;;;1.70;;
27558;SDS011;15002;52.028;5.670;2022-07-11T07:18:14;2.38;;;1.40;;
27558;SDS011;15002;52.028;5.670;2022-07-11T07:20:40;1.98;;;1.20;;
27558;SDS011;15002;52.028;5.670;2022-07-11T07:23:06;1.30;;;1.20;;
27558;SDS011;15002;52.028;5.670;2022-07-11T07:25:31;1.65;;;1.33;;
27558;SDS011;15002;52.028;5.670;2022-07-11T07:27:58;2.13;;;1.65;;
27558;SDS011;15002;52.028;5.670;2022-07-11T07:30:24;1.38;;;1.27;;
27558;SDS011;15002;52.028;5.670;2022-07-11T07:32:50;1.50;;;1.05;;
27558;SDS011;15002;52.028;5.670;2022-07-11T07:35:15;1.15;;;1.05;;
27558;SDS011;15002;52.028;5.670;2022-07-11T07:37:41;1.33;;;1.00;;
27558;SDS011;15002;52.028;5.670;2022-07-11T07:40:07;2.03;;;1.00;;
27558;SDS011;15002;52.028;5.670;2022-07-11T07:42:33;1.45;;;0.90;;
27558;SDS011;15002;52.028;5.670;2022-07-11T07:44:59;1.88;;;0.82;;
27558;SDS011;15002;52.028;5.670;2022-07-11T07:47:24;1.05;;;0.82;;
27558;SDS011;15002;52.028;5.670;2022-07-11T07:49:50;1.92;;;0.90;;
27558;SDS011;15002;52.028;5.670;2022-07-11T07:52:16;1.10;;;1.00;;
27558;SDS011;15002;52.028;5.670;2022-07-11T07:54:42;3.22;;;1.10;;
27558;SDS011;15002;52.028;5.670;2022-07-11T07:57:08;1.20;;;1.08;;
27558;SDS011;15002;52.028;5.670;2022-07-11T07:59:33;1.55;;;1.23;;
27558;SDS011;15002;52.028;5.670;2022-07-11T08:01:59;1.30;;;1.20;;
27558;SDS011;15002;52.028;5.670;2022-07-11T08:04:25;2.90;;;1.33;;
27558;SDS011;15002;52.028;5.670;2022-07-11T08:06:50;1.27;;;1.17;;
27558;SDS011;15002;52.028;5.670;2022-07-11T08:09:16;2.42;;;1.40;;
27558;SDS011;15002;52.028;5.670;2022-07-11T08:11:41;1.52;;;1.10;;
27558;SDS011;15002;52.028;5.670;2022-07-11T08:14:07;1.80;;;1.00;;
27558;SDS011;15002;52.028;5.670;2022-07-11T08:16:33;1.25;;;1.00;;
27558;SDS011;15002;52.028;5.670;2022-07-11T08:18:59;1.30;;;1.15;;
27558;SDS011;15002;52.028;5.670;2022-07-11T08:21:28;1.00;;;0.80;;
27558;SDS011;15002;52.028;5.670;2022-07-11T08:23:55;1.00;;;0.57;;
27558;SDS011;15002;52.028;5.670;2022-07-11T08:26:21;1.90;;;0.75;;
27558;SDS011;15002;52.028;5.670;2022-07-11T08:28:47;2.20;;;0.82;;
27558;SDS011;15002;52.028;5.670;2022-07-11T08:31:13;1.00;;;0.60;;
27558;SDS011;15002;52.028;5.670;2022-07-11T08:33:39;3.67;;;0.50;;
27558;SDS011;15002;52.028;5.670;2022-07-11T08:36:04;1.25;;;0.40;;
27558;SDS011;15002;52.028;5.670;2022-07-11T08:38:31;0.40;;;0.40;;
27558;SDS011;15002;52.028;5.670;2022-07-11T08:40:57;0.30;;;0.30;;
27558;SDS011;15002;52.028;5.670;2022-07-11T08:43:24;0.88;;;0.47;;
27558;SDS011;15002;52.028;5.670;2022-07-11T08:45:54;1.02;;;0.50;;
27558;SDS011;15002;52.028;5.670;2022-07-11T08:48:20;0.80;;;0.80;;
27558;SDS011;15002;52.028;5.670;2022-07-11T08:50:51;1.10;;;1.00;;
27558;SDS011;15002;52.028;5.670;2022-07-11T08:53:17;1.30;;;0.90;;
27558;SDS011;15002;52.028;5.670;2022-07-11T08:55:43;2.05;;;0.77;;
27558;SDS011;15002;52.028;5.670;2022-07-11T08:58:09;2.85;;;1.13;;
27558;SDS011;15002;52.028;5.670;2022-07-11T09:00:35;1.13;;;0.85;;
27558;SDS011;15002;52.028;5.670;2022-07-11T09:03:02;2.00;;;0.75;;
27558;SDS011;15002;52.028;5.670;2022-07-11T09:05:32;0.70;;;0.68;;
27558;SDS011;15002;52.028;5.670;2022-07-11T09:07:57;0.55;;;0.50;;
27558;SDS011;15002;52.028;5.670;2022-07-11T09:10:23;0.60;;;0.60;;
27558;SDS011;15002;52.028;5.670;2022-07-11T09:15:34;1.40;;;1.17;;
27558;SDS011;15002;52.028;5.670;2022-07-11T09:18:02;1.42;;;0.73;;
27558;SDS011;15002;52.028;5.670;2022-07-11T09:20:29;2.38;;;0.88;;
27558;SDS011;15002;52.028;5.670;2022-07-11T09:23:43;1.00;;;0.68;;
27558;SDS011;15002;52.028;5.670;2022-07-11T09:26:29;0.55;;;0.52;;
27558;SDS011;15002;52.028;5.670;2022-07-11T09:31:31;0.73;;;0.70;;
27558;SDS011;15002;52.028;5.670;2022-07-11T09:33:58;1.90;;;0.82;;
27558;SDS011;15002;52.028;5.670;2022-07-11T09:39:06;0.90;;;0.70;;
27558;SDS011;15002;52.028;5.670;2022-07-11T09:41:34;1.52;;;0.80;;
27558;SDS011;15002;52.028;5.670;2022-07-11T09:44:10;0.77;;;0.70;;
27558;SDS011;15002;52.028;5.670;2022-07-11T09:46:40;1.48;;;1.00;;
27558;SDS011;15002;52.028;5.670;2022-07-11T09:49:07;1.05;;;0.70;;
27558;SDS011;15002;52.028;5.670;2022-07-11T09:51:33;0.60;;;0.60;;
27558;SDS011;15002;52.028;5.670;2022-07-11T09:54:00;0.70;;;0.70;;
27558;SDS011;15002;52.028;5.670;2022-07-11T09:56:33;0.75;;;0.68;;
27558;SDS011;15002;52.028;5.670;2022-07-11T09:59:10;1.20;;;0.88;;
27558;SDS011;15002;52.028;5.670;2022-07-11T10:01:38;2.35;;;0.80;;
27558;SDS011;15002;52.028;5.670;2022-07-11T10:04:08;1.02;;;0.60;;
27558;SDS011;15002;52.028;5.670;2022-07-11T10:06:35;1.02;;;0.70;;
27558;SDS011;15002;52.028;5.670;2022-07-11T10:09:02;1.42;;;0.80;;
27558;SDS011;15002;52.028;5.670;2022-07-11T10:11:30;1.17;;;1.08;;
27558;SDS011;15002;52.028;5.670;2022-07-11T10:13:58;0.50;;;0.50;;
27558;SDS011;15002;52.028;5.670;2022-07-11T10:16:34;0.77;;;0.75;;
27558;SDS011;15002;52.028;5.670;2022-07-11T10:22:06;1.00;;;0.80;;
27558;SDS011;15002;52.028;5.670;2022-07-11T10:24:45;0.60;;;0.60;;
27558;SDS011;15002;52.028;5.670;2022-07-11T10:27:29;0.60;;;0.57;;
27558;SDS011;15002;52.028;5.670;2022-07-11T10:30:06;2.30;;;0.57;;
27558;SDS011;15002;52.028;5.670;2022-07-11T10:32:31;1.00;;;0.68;;
27558;SDS011;15002;52.028;5.670;2022-07-11T10:35:31;0.60;;;0.50;;
27558;SDS011;15002;52.028;5.670;2022-07-11T10:37:53;0.70;;;0.70;;
27558;SDS011;15002;52.028;5.670;2022-07-11T10:43:11;1.02;;;0.82;;
27558;SDS011;15002;52.028;5.670;2022-07-11T10:48:26;1.27;;;0.82;;
27558;SDS011;15002;52.028;5.670;2022-07-11T10:50:54;1.63;;;1.20;;
27558;SDS011;15002;52.028;5.670;2022-07-11T10:53:31;0.82;;;0.73;;
27558;SDS011;15002;52.028;5.670;2022-07-11T10:56:05;2.10;;;0.80;;
27558;SDS011;15002;52.028;5.670;2022-07-11T10:58:37;1.38;;;1.10;;
27558;SDS011;15002;52.028;5.670;2022-07-11T11:03:37;0.68;;;0.68;;
27558;SDS011;15002;52.028;5.670;2022-07-11T11:06:03;2.55;;;0.60;;
27558;SDS011;15002;52.028;5.670;2022-07-11T11:16:51;2.15;;;0.60;;
27558;SDS011;15002;52.028;5.670;2022-07-11T11:22:28;1.15;;;0.68;;
27558;SDS011;15002;52.028;5.670;2022-07-11T11:24:55;0.85;;;0.77;;
27558;SDS011;15002;52.028;5.670;2022-07-11T11:27:22;1.23;;;0.80;;
27558;SDS011;15002;52.028;5.670;2022-07-11T11:29:55;1.23;;;1.00;;
27558;SDS011;15002;52.028;5.670;2022-07-11T11:32:21;2.38;;;1.23;;
27558;SDS011;15002;52.028;5.670;2022-07-11T11:34:54;1.52;;;1.10;;
27558;SDS011;15002;52.028;5.670;2022-07-11T11:37:21;2.20;;;0.90;;
27558;SDS011;15002;52.028;5.670;2022-07-11T11:39:47;1.35;;;1.00;;
27558;SDS011;15002;52.028;5.670;2022-07-11T11:42:16;3.58;;;1.38;;
27558;SDS011;15002;52.028;5.670;2022-07-11T11:44:49;1.33;;;1.15;;
27558;SDS011;15002;52.028;5.670;2022-07-11T11:47:17;2.67;;;1.00;;
27558;SDS011;15002;52.028;5.670;2022-07-11T11:49:46;2.10;;;0.90;;
27558;SDS011;15002;52.028;5.670;2022-07-11T11:52:12;0.90;;;0.90;;
27558;SDS011;15002;52.028;5.670;2022-07-11T11:54:38;1.30;;;0.88;;
27558;SDS011;15002;52.028;5.670;2022-07-11T11:57:08;2.40;;;0.80;;
27558;SDS011;15002;52.028;5.670;2022-07-11T11:59:38;0.60;;;0.60;;
27558;SDS011;15002;52.028;5.670;2022-07-11T12:02:06;1.23;;;0.40;;
27558;SDS011;15002;52.028;5.670;2022-07-11T12:04:32;1.95;;;0.80;;
27558;SDS011;15002;52.028;5.670;2022-07-11T12:07:00;1.23;;;0.60;;
27558;SDS011;15002;52.028;5.670;2022-07-11T12:09:26;1.95;;;0.80;;
27558;SDS011;15002;52.028;5.670;2022-07-11T12:12:11;3.42;;;1.00;;
27558;SDS011;15002;52.028;5.670;2022-07-11T12:14:55;3.50;;;1.20;;
27558;SDS011;15002;52.028;5.670;2022-07-11T12:17:25;1.50;;;1.27;;
27558;SDS011;15002;52.028;5.670;2022-07-11T12:19:51;0.90;;;0.70;;
27558;SDS011;15002;52.028;5.670;2022-07-11T12:22:17;1.95;;;0.50;;
27558;SDS011;15002;52.028;5.670;2022-07-11T12:24:50;1.15;;;0.85;;
27558;SDS011;15002;52.028;5.670;2022-07-11T12:27:17;1.92;;;0.60;;
27558;SDS011;15002;52.028;5.670;2022-07-11T12:29:48;2.35;;;0.50;;
27558;SDS011;15002;52.028;5.670;2022-07-11T12:32:20;1.00;;;0.75;;
27558;SDS011;15002;52.028;5.670;2022-07-11T12:34:49;0.95;;;0.80;;
27558;SDS011;15002;52.028;5.670;2022-07-11T12:37:21;1.38;;;0.90;;
27558;SDS011;15002;52.028;5.670;2022-07-11T12:39:50;3.08;;;1.00;;
27558;SDS011;15002;52.028;5.670;2022-07-11T12:45:00;1.75;;;0.80;;
27558;SDS011;15002;52.028;5.670;2022-07-11T12:47:48;1.45;;;0.80;;
27558;SDS011;15002;52.028;5.670;2022-07-11T12:50:21;0.70;;;0.70;;
27558;SDS011;15002;52.028;5.670;2022-07-11T12:52:49;0.90;;;0.90;;
27558;SDS011;15002;52.028;5.670;2022-07-11T12:58:13;1.58;;;0.80;;
27558;SDS011;15002;52.028;5.670;2022-07-11T13:00:43;1.70;;;1.13;;
27558;SDS011;15002;52.028;5.670;2022-07-11T13:03:30;0.80;;;0.77;;
27558;SDS011;15002;52.028;5.670;2022-07-11T13:05:57;0.88;;;0.60;;
27558;SDS011;15002;52.028;5.670;2022-07-11T13:08:30;1.15;;;1.00;;
27558;SDS011;15002;52.028;5.670;2022-07-11T13:11:13;1.27;;;1.00;;
27558;SDS011;15002;52.028;5.670;2022-07-11T13:13:42;2.00;;;0.90;;
27558;SDS011;15002;52.028;5.670;2022-07-11T13:16:09;3.45;;;1.40;;
27558;SDS011;15002;52.028;5.670;2022-07-11T13:18:35;1.13;;;1.02;;
27558;SDS011;15002;52.028;5.670;2022-07-11T13:21:01;2.95;;;1.10;;
27558;SDS011;15002;52.028;5.670;2022-07-11T13:23:28;0.75;;;0.68;;
27558;SDS011;15002;52.028;5.670;2022-07-11T13:25:54;1.85;;;0.80;;
27558;SDS011;15002;52.028;5.670;2022-07-11T13:28:21;1.10;;;0.80;;
27558;SDS011;15002;52.028;5.670;2022-07-11T13:30:49;1.00;;;0.60;;
27558;SDS011;15002;52.028;5.670;2022-07-11T13:33:15;2.05;;;0.70;;
27558;SDS011;15002;52.028;5.670;2022-07-11T13:35:41;0.50;;;0.50;;
27558;SDS011;15002;52.028;5.670;2022-07-11T13:38:06;0.52;;;0.50;;
27558;SDS011;15002;52.028;5.670;2022-07-11T13:40:32;1.58;;;0.63;;
27558;SDS011;15002;52.028;5.670;2022-07-11T13:42:58;1.02;;;0.80;;
27558;SDS011;15002;52.028;5.670;2022-07-11T13:45:25;0.60;;;0.60;;
27558;SDS011;15002;52.028;5.670;2022-07-11T13:47:52;1.48;;;0.75;;
27558;SDS011;15002;52.028;5.670;2022-07-11T13:50:18;0.65;;;0.60;;
27558;SDS011;15002;52.028;5.670;2022-07-11T13:52:46;1.40;;;0.60;;
27558;SDS011;15002;52.028;5.670;2022-07-11T13:55:16;0.90;;;0.70;;
27558;SDS011;15002;52.028;5.670;2022-07-11T13:57:43;0.50;;;0.50;;
27558;SDS011;15002;52.028;5.670;2022-07-11T14:00:09;2.00;;;0.85;;
27558;SDS011;15002;52.028;5.670;2022-07-11T14:02:36;0.98;;;0.50;;
27558;SDS011;15002;52.028;5.670;2022-07-11T14:05:02;0.35;;;0.30;;
27558;SDS011;15002;52.028;5.670;2022-07-11T14:07:28;1.27;;;0.30;;
27558;SDS011;15002;52.028;5.670;2022-07-11T14:09:55;0.73;;;0.50;;
27558;SDS011;15002;52.028;5.670;2022-07-11T14:12:21;2.10;;;0.63;;
27558;SDS011;15002;52.028;5.670;2022-07-11T14:14:46;2.28;;;0.47;;
27558;SDS011;15002;52.028;5.670;2022-07-11T14:17:13;5.50;;;0.65;;
27558;SDS011;15002;52.028;5.670;2022-07-11T14:19:39;2.25;;;0.55;;
27558;SDS011;15002;52.028;5.670;2022-07-11T14:22:05;0.75;;;0.47;;
27558;SDS011;15002;52.028;5.670;2022-07-11T14:24:31;0.82;;;0.50;;
27558;SDS011;15002;52.028;5.670;2022-07-11T14:27:01;0.50;;;0.50;;
27558;SDS011;15002;52.028;5.670;2022-07-11T14:29:27;0.35;;;0.35;;
27558;SDS011;15002;52.028;5.670;2022-07-11T14:31:53;0.50;;;0.50;;
27558;SDS011;15002;52.028;5.670;2022-07-11T14:34:23;0.30;;;0.30;;
27558;SDS011;15002;52.028;5.670;2022-07-11T14:36:49;0.28;;;0.20;;
27558;SDS011;15002;52.028;5.670;2022-07-11T14:39:15;1.55;;;0.43;;
27558;SDS011;15002;52.028;5.670;2022-07-11T14:41:41;0.32;;;0.32;;
27558;SDS011;15002;52.028;5.670;2022-07-11T14:44:09;3.90;;;0.52;;
27558;SDS011;15002;52.028;5.670;2022-07-11T14:46:34;0.60;;;0.50;;
27558;SDS011;15002;52.028;5.670;2022-07-11T14:49:00;1.05;;;0.32;;
27558;SDS011;15002;52.028;5.670;2022-07-11T14:51:26;18.00;;;16.13;;
27558;SDS011;15002;52.028;5.670;2022-07-11T14:53:53;32.58;;;26.13;;
27558;SDS011;15002;52.028;5.670;2022-07-11T14:56:19;4.82;;;4.25;;
27558;SDS011;15002;52.028;5.670;2022-07-11T14:58:44;0.60;;;0.60;;
27558;SDS011;15002;52.028;5.670;2022-07-11T15:01:10;1.55;;;0.90;;
27558;SDS011;15002;52.028;5.670;2022-07-11T15:03:36;0.65;;;0.50;;
27558;SDS011;15002;52.028;5.670;2022-07-11T15:06:09;0.93;;;0.80;;
27558;SDS011;15002;52.028;5.670;2022-07-11T15:08:36;0.85;;;0.60;;
27558;SDS011;15002;52.028;5.670;2022-07-11T15:11:20;0.90;;;0.68;;
27558;SDS011;15002;52.028;5.670;2022-07-11T15:14:04;0.40;;;0.40;;
27558;SDS011;15002;52.028;5.670;2022-07-11T15:16:31;0.47;;;0.35;;
27558;SDS011;15002;52.028;5.670;2022-07-11T15:18:58;0.50;;;0.35;;
27558;SDS011;15002;52.028;5.670;2022-07-11T15:21:25;0.80;;;0.45;;
27558;SDS011;15002;52.028;5.670;2022-07-11T15:23:51;0.45;;;0.30;;
27558;SDS011;15002;52.028;5.670;2022-07-11T15:26:16;1.75;;;0.30;;